Saratov, Russia
Current Conditions -  °F | °C
As of 11:00 AM on Thursday 27 Nov 2014 (Local Time) from UWSS Reporting Station
Clear Clear  
Wind Chill: 18°   Ceiling: Unl
Heat Index: 18°   Visibility: 6mi
Dew Point:   Wind: 2mph
Humidity: 63%   Direction: 360°N
Pressure: 30.5"   Gusts: NA
Location:  51.57°N, 46.03°E
Report Text: UWSS 270800Z 36001MPS CAVOK M08/M14 Q1033 300///60 NOSIG RMKQFE761
Loading
Personal Weather Stations






























Interactive Weather Map New forecast layout! Learn more

10-Day Weather Forecast

Advertisements
Track Severe Weather on mobile